Time;durP1;ratioP1;P1;durP2;ratioP2;P2;SDS_P1;SDS_P2;PMS_P1;PMS_P2;Temp;Humidity;BMP_temperature;BMP_pressure;BME280_temperature;BME280_humidity;BME280_pressure;Samples;Min_cycle;Max_cycle;Signal;HPM_P1;HPM_P2
2022/09/11 00:02:21;;;;;;;46.00;32.63;;;;;;;;;;5033850;28;20499;-64
2022/09/11 00:04:48;;;;;;;54.30;33.47;;;;;;;;;;5033899;28;20503;-64
2022/09/11 00:07:15;;;;;;;44.40;32.00;;;;;;;;;;5033544;28;20884;-64
2022/09/11 00:09:43;;;;;;;50.27;32.60;;;;;;;;;;5033583;28;20448;-65
2022/09/11 00:12:11;;;;;;;48.10;33.60;;;;;;;;;;5033781;28;20449;-64
2022/09/11 00:14:39;;;;;;;44.33;32.70;;;;;;;;;;5033427;28;20496;-65
2022/09/11 00:17:06;;;;;;;46.43;31.80;;;;;;;;;;5033232;28;20501;-64
2022/09/11 00:19:35;;;;;;;50.47;33.67;;;;;;;;;;5033405;28;20448;-64
2022/09/11 00:22:02;;;;;;;42.57;31.83;;;;;;;;;;5033562;28;20447;-64
2022/09/11 00:24:29;;;;;;;46.20;32.50;;;;;;;;;;5033411;28;20453;-64
2022/09/11 00:26:57;;;;;;;51.37;33.80;;;;;;;;;;5033220;28;20484;-64
2022/09/11 00:29:24;;;;;;;54.97;34.73;;;;;;;;;;5033813;28;20451;-64
2022/09/11 00:31:51;;;;;;;50.17;35.87;;;;;;;;;;5032662;28;21010;-64
2022/09/11 00:34:18;;;;;;;56.13;36.13;;;;;;;;;;5033278;28;20527;-64
2022/09/11 00:36:47;;;;;;;50.00;33.50;;;;;;;;;;5033255;28;20459;-64
2022/09/11 00:39:14;;;;;;;47.87;33.60;;;;;;;;;;5032935;28;20451;-64
2022/09/11 00:41:43;;;;;;;57.50;36.60;;;;;;;;;;5033366;28;20796;-64
2022/09/11 00:44:26;;;;;;;52.87;33.43;;;;;;;;;;5035082;28;20527;-64
2022/09/11 00:46:54;;;;;;;56.47;35.93;;;;;;;;;;5036128;28;20511;-64
2022/09/11 00:49:24;;;;;;;57.27;36.17;;;;;;;;;;5037158;28;20525;-64
2022/09/11 00:51:54;;;;;;;49.87;32.43;;;;;;;;;;5036992;28;20481;-65
2022/09/11 00:54:24;;;;;;;62.03;36.33;;;;;;;;;;5037649;28;20434;-64
2022/09/11 00:56:52;;;;;;;57.67;35.70;;;;;;;;;;5036894;28;20535;-64
2022/09/11 00:59:20;;;;;;;50.07;34.07;;;;;;;;;;5036963;28;20435;-64
2022/09/11 01:01:47;;;;;;;60.50;36.00;;;;;;;;;;5036548;28;20449;-65
2022/09/11 01:04:14;;;;;;;53.43;34.87;;;;;;;;;;5036847;28;20445;-65
2022/09/11 01:06:41;;;;;;;55.03;37.37;;;;;;;;;;5036717;28;20491;-65
2022/09/11 01:09:10;;;;;;;61.67;36.00;;;;;;;;;;5037294;28;20451;-64
2022/09/11 01:11:44;;;;;;;54.13;34.50;;;;;;;;;;5036558;28;20452;-64
2022/09/11 01:14:18;;;;;;;57.00;34.27;;;;;;;;;;5036414;28;20460;-64
2022/09/11 01:16:49;;;;;;;63.40;34.47;;;;;;;;;;5036825;28;20449;-65
2022/09/11 01:19:25;;;;;;;66.90;37.23;;;;;;;;;;5037155;28;20439;-65
2022/09/11 01:22:01;;;;;;;62.97;36.17;;;;;;;;;;5036772;28;20461;-64
2022/09/11 01:24:49;;;;;;;66.87;37.57;;;;;;;;;;5036662;28;20431;-64
2022/09/11 01:27:36;;;;;;;67.53;37.60;;;;;;;;;;5031154;28;20476;-65
2022/09/11 01:30:04;;;;;;;63.93;37.73;;;;;;;;;;5036923;28;20452;-64
2022/09/11 01:32:34;;;;;;;67.77;37.93;;;;;;;;;;5035830;28;20471;-64
2022/09/11 01:35:04;;;;;;;67.20;36.60;;;;;;;;;;5036501;28;20444;-64
2022/09/11 01:37:34;;;;;;;71.20;36.53;;;;;;;;;;5036087;28;20451;-65
2022/09/11 01:40:04;;;;;;;58.87;37.17;;;;;;;;;;5036633;28;20437;-64
2022/09/11 01:42:33;;;;;;;70.37;38.47;;;;;;;;;;5036218;28;20934;-65
2022/09/11 01:45:04;;;;;;;82.33;39.57;;;;;;;;;;5036132;28;20448;-64
2022/09/11 01:47:34;;;;;;;69.60;39.20;;;;;;;;;;5035695;28;20465;-65
2022/09/11 01:50:02;;;;;;;81.03;40.57;;;;;;;;;;5035735;28;20449;-64
2022/09/11 01:52:32;;;;;;;84.90;42.37;;;;;;;;;;5036239;28;20440;-64
2022/09/11 01:55:02;;;;;;;82.83;40.60;;;;;;;;;;5035840;28;20477;-64
2022/09/11 01:57:32;;;;;;;74.13;39.00;;;;;;;;;;5035800;28;20471;-65
2022/09/11 02:00:01;;;;;;;77.03;40.50;;;;;;;;;;5035917;28;20456;-64
2022/09/11 02:02:34;;;;;;;74.50;38.00;;;;;;;;;;5036159;28;20470;-65
2022/09/11 02:05:04;;;;;;;80.83;40.67;;;;;;;;;;5036506;28;20898;-65
2022/09/11 02:07:33;;;;;;;86.63;43.60;;;;;;;;;;5035291;28;20488;-65
2022/09/11 02:10:02;;;;;;;83.00;42.07;;;;;;;;;;5035770;28;20532;-65
2022/09/11 02:12:32;;;;;;;81.10;41.40;;;;;;;;;;5035635;28;20806;-65
2022/09/11 02:15:00;;;;;;;95.07;44.80;;;;;;;;;;5036166;28;20436;-65
2022/09/11 02:17:30;;;;;;;93.37;40.17;;;;;;;;;;5035509;28;20458;-65
2022/09/11 02:19:59;;;;;;;78.03;41.87;;;;;;;;;;5036451;28;20934;-65
2022/09/11 02:22:27;;;;;;;86.97;41.47;;;;;;;;;;5035678;28;20456;-65
2022/09/11 02:24:54;;;;;;;81.20;41.27;;;;;;;;;;5035483;28;20502;-65
2022/09/11 02:27:23;;;;;;;88.80;42.37;;;;;;;;;;5035267;28;20480;-65
2022/09/11 02:29:51;;;;;;;99.47;43.73;;;;;;;;;;5035729;28;20449;-64
2022/09/11 02:32:18;;;;;;;105.73;48.63;;;;;;;;;;5034904;28;20484;-65
2022/09/11 02:34:47;;;;;;;100.27;46.10;;;;;;;;;;5035248;28;20440;-65
2022/09/11 02:37:21;;;;;;;111.73;44.23;;;;;;;;;;5034758;28;20456;-65
2022/09/11 02:39:55;;;;;;;84.70;41.70;;;;;;;;;;5034869;28;20907;-64
2022/09/11 02:42:27;;;;;;;91.97;43.37;;;;;;;;;;5035196;28;20434;-65
2022/09/11 02:44:59;;;;;;;99.03;43.40;;;;;;;;;;5035252;28;20429;-65
2022/09/11 02:47:31;;;;;;;97.43;43.50;;;;;;;;;;5034962;28;20799;-65
2022/09/11 02:50:04;;;;;;;93.37;39.10;;;;;;;;;;5034920;28;20430;-65
2022/09/11 02:52:39;;;;;;;109.60;42.67;;;;;;;;;;5034555;28;20444;-65
2022/09/11 02:55:11;;;;;;;100.33;42.73;;;;;;;;;;5035097;28;20490;-65
2022/09/11 02:57:41;;;;;;;102.10;46.57;;;;;;;;;;5035189;28;20799;-65
2022/09/11 03:00:09;;;;;;;118.57;47.97;;;;;;;;;;5035572;28;20441;-65
2022/09/11 03:02:39;;;;;;;120.80;48.97;;;;;;;;;;5034639;28;20525;-65
2022/09/11 03:05:07;;;;;;;121.80;48.00;;;;;;;;;;5034409;28;20524;-65
2022/09/11 03:07:35;;;;;;;112.73;46.20;;;;;;;;;;5033459;28;20489;-65
2022/09/11 03:10:03;;;;;;;104.83;44.13;;;;;;;;;;5034992;28;20443;-65
2022/09/11 03:12:30;;;;;;;143.93;50.43;;;;;;;;;;5034431;28;20450;-64
2022/09/11 03:14:57;;;;;;;120.07;44.40;;;;;;;;;;5034879;28;20442;-64
2022/09/11 03:17:25;;;;;;;143.87;43.10;;;;;;;;;;5034319;28;20458;-65
2022/09/11 03:19:52;;;;;;;225.80;47.63;;;;;;;;;;5034389;28;20778;-65
2022/09/11 03:22:19;;;;;;;150.40;44.27;;;;;;;;;;5034230;28;20789;-65
2022/09/11 03:24:48;;;;;;;216.03;48.00;;;;;;;;;;5034285;28;20453;-64
2022/09/11 03:27:16;;;;;;;141.57;44.87;;;;;;;;;;5034757;28;20487;-64
2022/09/11 03:29:43;;;;;;;176.70;48.33;;;;;;;;;;5034682;28;20444;-64
2022/09/11 03:32:10;;;;;;;155.53;47.90;;;;;;;;;;5034395;28;20499;-64
2022/09/11 03:34:38;;;;;;;135.83;48.10;;;;;;;;;;5033985;28;20459;-66
2022/09/11 03:37:05;;;;;;;137.33;45.17;;;;;;;;;;5034150;28;20443;-65
2022/09/11 03:39:32;;;;;;;117.03;46.33;;;;;;;;;;5033947;28;20449;-64
2022/09/11 03:42:01;;;;;;;114.50;45.40;;;;;;;;;;5034229;28;20454;-65
2022/09/11 03:44:28;;;;;;;115.40;43.17;;;;;;;;;;5033781;28;20487;-65
2022/09/11 03:46:56;;;;;;;135.40;46.30;;;;;;;;;;5033459;28;20479;-64
2022/09/11 03:49:23;;;;;;;139.17;45.83;;;;;;;;;;5033395;28;20534;-65
2022/09/11 03:51:50;;;;;;;147.20;46.40;;;;;;;;;;5033497;28;20452;-65
2022/09/11 03:54:17;;;;;;;104.70;44.57;;;;;;;;;;5033818;28;20453;-65
2022/09/11 03:56:45;;;;;;;128.53;46.40;;;;;;;;;;5033440;28;20445;-65
2022/09/11 03:59:13;;;;;;;116.80;47.43;;;;;;;;;;5033812;28;20444;-65
2022/09/11 04:01:40;;;;;;;99.10;47.07;;;;;;;;;;5033788;28;20444;-64
2022/09/11 04:04:07;;;;;;;118.67;47.10;;;;;;;;;;5033555;28;20452;-65
2022/09/11 04:06:35;;;;;;;112.43;46.67;;;;;;;;;;5033630;28;20482;-65
2022/09/11 04:09:02;;;;;;;107.27;44.73;;;;;;;;;;5033737;28;20442;-65
2022/09/11 04:11:30;;;;;;;111.87;44.77;;;;;;;;;;5032246;28;20450;-65
2022/09/11 04:13:58;;;;;;;211.43;49.37;;;;;;;;;;5032400;28;20448;-65
2022/09/11 04:16:31;;;;;;;127.30;43.70;;;;;;;;;;5033027;28;20515;-65
2022/09/11 04:18:59;;;;;;;142.73;46.17;;;;;;;;;;5032512;28;20523;-65
2022/09/11 04:21:27;;;;;;;138.27;45.20;;;;;;;;;;5032416;28;20899;-65
2022/09/11 04:23:56;;;;;;;162.10;44.93;;;;;;;;;;5032732;28;20804;-65
2022/09/11 04:26:24;;;;;;;129.90;42.60;;;;;;;;;;5032952;28;20444;-65
2022/09/11 04:28:52;;;;;;;127.30;42.53;;;;;;;;;;5032593;28;20458;-65
2022/09/11 04:31:20;;;;;;;95.80;41.07;;;;;;;;;;5032631;28;20820;-65
2022/09/11 04:33:49;;;;;;;173.20;40.13;;;;;;;;;;5032777;28;20445;-65
2022/09/11 04:36:17;;;;;;;400.80;46.93;;;;;;;;;;5032857;28;20452;-64
2022/09/11 04:38:44;;;;;;;130.60;40.27;;;;;;;;;;5033112;28;20534;-65
2022/09/11 04:41:12;;;;;;;177.73;39.90;;;;;;;;;;5033403;28;20451;-65
2022/09/11 04:43:40;;;;;;;141.90;38.70;;;;;;;;;;5033120;28;20445;-65
2022/09/11 04:46:08;;;;;;;132.97;37.80;;;;;;;;;;5033675;28;20893;-65
2022/09/11 04:48:36;;;;;;;111.87;38.50;;;;;;;;;;5032906;28;20471;-65
2022/09/11 04:51:06;;;;;;;121.90;41.07;;;;;;;;;;5032369;28;20547;-65
2022/09/11 04:53:33;;;;;;;171.77;41.63;;;;;;;;;;5032930;28;20441;-64
2022/09/11 04:56:04;;;;;;;132.33;39.77;;;;;;;;;;5032711;28;20459;-65
2022/09/11 04:58:32;;;;;;;121.67;36.67;;;;;;;;;;5032983;28;20446;-65
2022/09/11 05:00:59;;;;;;;156.30;40.67;;;;;;;;;;5032805;28;20452;-65
2022/09/11 05:03:26;;;;;;;154.70;39.60;;;;;;;;;;5033075;28;20439;-65
2022/09/11 05:05:53;;;;;;;112.40;37.17;;;;;;;;;;5032800;28;20449;-65
2022/09/11 05:08:24;;;;;;;101.40;38.97;;;;;;;;;;5032660;28;20473;-65
2022/09/11 05:10:51;;;;;;;136.43;42.13;;;;;;;;;;5031961;28;20436;-65
2022/09/11 05:13:19;;;;;;;104.40;39.43;;;;;;;;;;5032534;28;20958;-65
2022/09/11 05:15:46;;;;;;;119.37;39.90;;;;;;;;;;5032795;28;20445;-65
2022/09/11 05:18:13;;;;;;;117.77;42.77;;;;;;;;;;5032738;28;20514;-65
2022/09/11 05:20:40;;;;;;;141.80;41.30;;;;;;;;;;5032297;28;20926;-65
2022/09/11 05:23:08;;;;;;;108.40;37.80;;;;;;;;;;5032789;28;20531;-65
2022/09/11 05:25:36;;;;;;;166.27;41.20;;;;;;;;;;5032389;28;20961;-65
2022/09/11 05:28:04;;;;;;;135.03;37.10;;;;;;;;;;5032305;28;20479;-65
2022/09/11 05:30:31;;;;;;;117.37;38.03;;;;;;;;;;5032858;28;20456;-65
2022/09/11 05:32:59;;;;;;;135.53;42.60;;;;;;;;;;5036468;28;20487;-65
2022/09/11 05:35:26;;;;;;;218.00;42.13;;;;;;;;;;5036310;28;20448;-65
2022/09/11 05:37:53;;;;;;;147.73;40.93;;;;;;;;;;5035808;28;20461;-65
2022/09/11 05:40:20;;;;;;;113.70;41.67;;;;;;;;;;5035729;28;20452;-65
2022/09/11 05:42:49;;;;;;;182.13;42.00;;;;;;;;;;5035778;28;20448;-64
2022/09/11 05:45:16;;;;;;;125.27;42.60;;;;;;;;;;5035679;28;20947;-65
2022/09/11 05:47:44;;;;;;;108.50;39.50;;;;;;;;;;5035777;28;20483;-65
2022/09/11 05:50:11;;;;;;;117.70;37.63;;;;;;;;;;5035672;28;20449;-65
2022/09/11 05:52:39;;;;;;;125.67;41.27;;;;;;;;;;5035203;28;20456;-65
2022/09/11 05:55:06;;;;;;;111.60;36.10;;;;;;;;;;5035902;28;20520;-64
2022/09/11 05:57:33;;;;;;;137.40;39.20;;;;;;;;;;5035992;28;20449;-65
2022/09/11 06:00:02;;;;;;;116.83;39.20;;;;;;;;;;5035515;28;20540;-65
2022/09/11 06:02:30;;;;;;;125.97;38.80;;;;;;;;;;5035893;28;20520;-63
2022/09/11 06:04:58;;;;;;;143.40;40.30;;;;;;;;;;5035652;28;20486;-64
2022/09/11 06:07:25;;;;;;;130.60;37.40;;;;;;;;;;5035592;28;20472;-64
2022/09/11 06:09:52;;;;;;;132.53;36.23;;;;;;;;;;5035343;28;20448;-64
2022/09/11 06:12:20;;;;;;;129.63;37.83;;;;;;;;;;5035334;28;20445;-64
2022/09/11 06:14:47;;;;;;;98.07;35.47;;;;;;;;;;5035074;28;20452;-64
2022/09/11 06:17:15;;;;;;;108.27;37.47;;;;;;;;;;5035472;28;20455;-64
2022/09/11 06:19:42;;;;;;;116.70;36.57;;;;;;;;;;5035040;28;20449;-64
2022/09/11 06:22:10;;;;;;;102.83;36.10;;;;;;;;;;5035036;28;20455;-64
2022/09/11 06:24:37;;;;;;;116.00;37.03;;;;;;;;;;5035247;28;20857;-64
2022/09/11 06:27:04;;;;;;;117.37;39.27;;;;;;;;;;5034976;28;20471;-64
2022/09/11 06:29:31;;;;;;;86.30;35.27;;;;;;;;;;5035348;28;20447;-64
2022/09/11 06:31:59;;;;;;;125.00;36.47;;;;;;;;;;5034893;28;20534;-64
2022/09/11 06:34:29;;;;;;;111.17;36.07;;;;;;;;;;5034976;28;20532;-64
2022/09/11 06:36:56;;;;;;;92.13;32.97;;;;;;;;;;5034828;28;20449;-64
2022/09/11 06:39:23;;;;;;;87.00;33.00;;;;;;;;;;5034813;28;20444;-63
2022/09/11 06:41:52;;;;;;;88.33;31.00;;;;;;;;;;5034504;28;20457;-64
2022/09/11 06:44:19;;;;;;;79.03;31.60;;;;;;;;;;5034994;28;20452;-67
2022/09/11 06:46:47;;;;;;;86.77;32.77;;;;;;;;;;5034599;28;20447;-64
2022/09/11 06:49:15;;;;;;;83.43;35.50;;;;;;;;;;5035137;28;20527;-65
2022/09/11 06:51:43;;;;;;;80.47;31.53;;;;;;;;;;5034905;28;20579;-64
2022/09/11 06:54:10;;;;;;;92.47;35.83;;;;;;;;;;5034857;28;20484;-64
2022/09/11 06:56:37;;;;;;;76.93;32.97;;;;;;;;;;5034751;28;20448;-64
2022/09/11 06:59:05;;;;;;;81.83;32.13;;;;;;;;;;5035196;28;20449;-64
2022/09/11 07:01:32;;;;;;;84.60;32.53;;;;;;;;;;5034841;28;20466;-63
2022/09/11 07:04:01;;;;;;;83.00;34.33;;;;;;;;;;5034904;28;20940;-63
2022/09/11 07:06:29;;;;;;;93.40;33.57;;;;;;;;;;5034566;28;20463;-63
2022/09/11 07:08:59;;;;;;;84.73;34.30;;;;;;;;;;5034629;28;20480;-65
2022/09/11 07:11:27;;;;;;;82.03;33.40;;;;;;;;;;5034491;28;20441;-64
2022/09/11 07:13:54;;;;;;;94.93;36.37;;;;;;;;;;5034164;28;20449;-64
2022/09/11 07:16:21;;;;;;;84.23;34.63;;;;;;;;;;5034315;28;20463;-65
2022/09/11 07:18:49;;;;;;;77.77;34.67;;;;;;;;;;5034831;28;20453;-64
2022/09/11 07:21:17;;;;;;;82.97;34.30;;;;;;;;;;5034905;28;20456;-64
2022/09/11 07:23:47;;;;;;;72.47;33.07;;;;;;;;;;5034329;28;20445;-64
2022/09/11 07:26:15;;;;;;;72.50;33.13;;;;;;;;;;5034957;28;20439;-64
2022/09/11 07:28:42;;;;;;;67.00;33.67;;;;;;;;;;5034354;28;20836;-64
2022/09/11 07:31:10;;;;;;;64.33;30.83;;;;;;;;;;5031992;28;20993;-64
2022/09/11 07:33:38;;;;;;;69.73;34.30;;;;;;;;;;5033677;28;20464;-64
2022/09/11 07:36:10;;;;;;;80.40;33.83;;;;;;;;;;5033671;28;20806;-64
2022/09/11 07:38:38;;;;;;;71.53;33.77;;;;;;;;;;5033522;28;20429;-64
2022/09/11 07:41:05;;;;;;;74.50;34.27;;;;;;;;;;5034401;28;20459;-64
2022/09/11 07:43:34;;;;;;;83.03;34.50;;;;;;;;;;5034086;28;20443;-64
2022/09/11 07:46:01;;;;;;;70.17;33.30;;;;;;;;;;5033729;28;20442;-64
2022/09/11 07:48:28;;;;;;;63.40;32.40;;;;;;;;;;5033723;28;20481;-63
2022/09/11 07:50:57;;;;;;;64.50;31.37;;;;;;;;;;5033559;28;20454;-64
2022/09/11 07:53:24;;;;;;;57.80;29.30;;;;;;;;;;5033142;28;20452;-64
2022/09/11 07:55:51;;;;;;;48.63;27.00;;;;;;;;;;5033447;28;20455;-64
2022/09/11 07:58:18;;;;;;;47.77;25.23;;;;;;;;;;5033277;28;20448;-63
2022/09/11 08:00:47;;;;;;;38.37;23.30;;;;;;;;;;5033407;28;20448;-63
2022/09/11 08:03:15;;;;;;;36.87;21.40;;;;;;;;;;5033655;28;20843;-63
2022/09/11 08:05:42;;;;;;;34.57;21.83;;;;;;;;;;5033583;28;20527;-63
2022/09/11 08:08:09;;;;;;;29.93;19.80;;;;;;;;;;5033475;28;20476;-63
2022/09/11 08:10:39;;;;;;;29.63;19.37;;;;;;;;;;5033293;28;20444;-63
2022/09/11 08:13:06;;;;;;;29.80;19.60;;;;;;;;;;5033442;28;20426;-63
2022/09/11 08:15:34;;;;;;;29.33;19.80;;;;;;;;;;5033241;28;20445;-63
2022/09/11 08:18:02;;;;;;;26.43;17.23;;;;;;;;;;5033382;28;20498;-64
2022/09/11 08:20:30;;;;;;;24.23;16.00;;;;;;;;;;5033156;28;20444;-63
2022/09/11 08:22:58;;;;;;;24.27;17.73;;;;;;;;;;5032990;28;20953;-64
2022/09/11 08:25:27;;;;;;;28.87;17.53;;;;;;;;;;5033134;28;20503;-63
2022/09/11 08:27:54;;;;;;;28.90;17.57;;;;;;;;;;5033170;28;20508;-64
2022/09/11 08:30:21;;;;;;;28.37;19.73;;;;;;;;;;5032939;28;20457;-64
2022/09/11 08:32:49;;;;;;;22.90;16.70;;;;;;;;;;5032976;28;20478;-63
2022/09/11 08:35:17;;;;;;;21.97;15.77;;;;;;;;;;5033589;28;20436;-63
2022/09/11 08:37:45;;;;;;;21.13;16.77;;;;;;;;;;5033410;28;20434;-63
2022/09/11 08:40:12;;;;;;;21.07;14.50;;;;;;;;;;5032923;28;20447;-63
2022/09/11 08:42:41;;;;;;;23.00;16.03;;;;;;;;;;5032881;28;20525;-64
2022/09/11 08:45:12;;;;;;;23.53;16.93;;;;;;;;;;5033178;28;20450;-64
2022/09/11 08:47:41;;;;;;;22.50;15.47;;;;;;;;;;5033237;28;20433;-64
2022/09/11 08:50:12;;;;;;;23.33;15.50;;;;;;;;;;5033187;28;20448;-64
2022/09/11 08:52:42;;;;;;;22.73;14.23;;;;;;;;;;5033597;28;20435;-64
2022/09/11 08:55:12;;;;;;;25.47;15.87;;;;;;;;;;5033086;28;20447;-64
2022/09/11 08:57:43;;;;;;;21.33;14.53;;;;;;;;;;5032848;28;20427;-65
2022/09/11 09:00:14;;;;;;;27.20;15.43;;;;;;;;;;5032987;28;20438;-64
2022/09/11 09:02:48;;;;;;;25.33;15.07;;;;;;;;;;5033276;28;20432;-63
2022/09/11 09:05:20;;;;;;;20.13;13.87;;;;;;;;;;5033316;28;20446;-63
2022/09/11 09:07:57;;;;;;;23.70;15.53;;;;;;;;;;5036804;28;20446;-63
2022/09/11 09:10:29;;;;;;;17.80;13.40;;;;;;;;;;5037087;28;20448;-64
2022/09/11 09:13:02;;;;;;;16.37;13.30;;;;;;;;;;5036459;28;20926;-64
2022/09/11 09:15:38;;;;;;;19.00;13.53;;;;;;;;;;5037250;28;20774;-64
2022/09/11 09:18:09;;;;;;;20.97;13.57;;;;;;;;;;5036888;28;20784;-64
2022/09/11 09:20:38;;;;;;;22.60;13.83;;;;;;;;;;5036379;28;20455;-64
2022/09/11 09:23:11;;;;;;;22.03;13.93;;;;;;;;;;5036559;28;20449;-63
2022/09/11 09:25:40;;;;;;;18.73;15.13;;;;;;;;;;5036566;28;20441;-63
2022/09/11 09:28:11;;;;;;;19.90;13.77;;;;;;;;;;5036290;28;20477;-63
2022/09/11 09:30:43;;;;;;;20.00;15.17;;;;;;;;;;5036603;28;20802;-64
2022/09/11 09:33:19;;;;;;;19.30;13.43;;;;;;;;;;5036145;28;20433;-64
2022/09/11 09:35:46;;;;;;;21.50;14.97;;;;;;;;;;5036642;28;20437;-64
2022/09/11 09:38:18;;;;;;;19.23;14.20;;;;;;;;;;5036082;28;20448;-64
2022/09/11 09:40:49;;;;;;;17.83;14.03;;;;;;;;;;5036716;28;20433;-63
2022/09/11 09:43:34;;;;;;;17.93;12.67;;;;;;;;;;5036314;28;20437;-63
2022/09/11 09:46:07;;;;;;;17.70;13.03;;;;;;;;;;5035890;28;20440;-63
2022/09/11 09:48:37;;;;;;;16.57;12.47;;;;;;;;;;5036213;28;20473;-63
2022/09/11 09:51:04;;;;;;;16.77;12.50;;;;;;;;;;5036401;28;20483;-64
2022/09/11 09:53:36;;;;;;;18.37;12.27;;;;;;;;;;5036251;28;20446;-64
2022/09/11 09:56:04;;;;;;;16.90;12.80;;;;;;;;;;5036435;28;20433;-63
2022/09/11 09:58:33;;;;;;;18.73;14.00;;;;;;;;;;5034908;28;20533;-64
2022/09/11 10:01:01;;;;;;;17.00;13.17;;;;;;;;;;5034757;28;20453;-64
2022/09/11 10:03:28;;;;;;;20.40;13.80;;;;;;;;;;5035005;28;20447;-64
2022/09/11 10:05:59;;;;;;;18.73;12.97;;;;;;;;;;5035293;28;20449;-63
2022/09/11 10:08:32;;;;;;;19.60;13.40;;;;;;;;;;5035359;28;20974;-64
2022/09/11 10:11:02;;;;;;;18.43;14.07;;;;;;;;;;5035032;28;20436;-64
2022/09/11 10:13:30;;;;;;;21.00;15.30;;;;;;;;;;5035906;28;20444;-64
2022/09/11 10:15:59;;;;;;;20.40;15.53;;;;;;;;;;5035145;28;20440;-64
2022/09/11 10:18:40;;;;;;;19.83;15.13;;;;;;;;;;5035044;28;20508;-63
2022/09/11 10:21:22;;;;;;;19.20;14.70;;;;;;;;;;5035500;28;20444;-63
2022/09/11 10:23:50;;;;;;;20.57;14.43;;;;;;;;;;5035460;28;20900;-63
2022/09/11 10:26:21;;;;;;;20.57;13.60;;;;;;;;;;5035200;28;20769;-63
2022/09/11 10:28:49;;;;;;;20.80;15.80;;;;;;;;;;5034401;28;20977;-63
2022/09/11 10:31:17;;;;;;;21.63;15.57;;;;;;;;;;5034190;28;20485;-63
2022/09/11 10:33:47;;;;;;;18.07;13.00;;;;;;;;;;5034692;28;20533;-63
2022/09/11 10:36:22;;;;;;;17.43;13.43;;;;;;;;;;5035150;28;20434;-63
2022/09/11 10:38:49;;;;;;;19.70;13.60;;;;;;;;;;5035010;28;20533;-63
2022/09/11 10:41:18;;;;;;;16.70;12.43;;;;;;;;;;5034604;28;20449;-63
2022/09/11 10:43:49;;;;;;;18.03;13.00;;;;;;;;;;5034910;28;20777;-63
2022/09/11 10:46:31;;;;;;;19.17;14.50;;;;;;;;;;5034627;28;20433;-63
2022/09/11 10:48:59;;;;;;;18.87;13.87;;;;;;;;;;5034126;28;20849;-63
2022/09/11 10:51:28;;;;;;;19.10;13.37;;;;;;;;;;5034329;28;20548;-63
2022/09/11 10:54:13;;;;;;;21.37;14.73;;;;;;;;;;5034297;28;20535;-63
2022/09/11 10:56:48;;;;;;;20.87;14.30;;;;;;;;;;5034803;28;20428;-63
2022/09/11 10:59:18;;;;;;;16.47;13.10;;;;;;;;;;5034855;28;20441;-63
2022/09/11 11:01:46;;;;;;;18.10;12.30;;;;;;;;;;5034667;28;20463;-63
2022/09/11 11:04:14;;;;;;;14.13;11.77;;;;;;;;;;5034140;28;20450;-63
2022/09/11 11:06:48;;;;;;;18.50;12.63;;;;;;;;;;5034511;28;20826;-63
2022/09/11 11:09:24;;;;;;;14.10;12.47;;;;;;;;;;5034534;28;20479;-63
2022/09/11 11:11:59;;;;;;;13.77;10.87;;;;;;;;;;5034213;28;20428;-63
2022/09/11 11:14:38;;;;;;;11.80;9.73;;;;;;;;;;5034533;28;20430;-63
2022/09/11 11:17:08;;;;;;;12.27;9.77;;;;;;;;;;5034759;28;21015;-63
2022/09/11 11:19:47;;;;;;;11.17;8.87;;;;;;;;;;5034779;28;20448;-64
2022/09/11 11:22:20;;;;;;;11.53;8.97;;;;;;;;;;5034494;28;20431;-64
2022/09/11 11:24:54;;;;;;;14.87;10.30;;;;;;;;;;5034008;28;20519;-63
2022/09/11 11:27:32;;;;;;;12.53;9.67;;;;;;;;;;5033804;28;20930;-62
2022/09/11 11:30:18;;;;;;;11.30;9.63;;;;;;;;;;5033288;28;20481;-63
2022/09/11 11:32:57;;;;;;;10.00;8.73;;;;;;;;;;5033383;28;20512;-63
2022/09/11 11:35:26;;;;;;;11.70;8.53;;;;;;;;;;5033968;28;20433;-63
2022/09/11 11:37:56;;;;;;;11.93;8.13;;;;;;;;;;5033676;28;20938;-63
2022/09/11 11:40:28;;;;;;;8.23;6.73;;;;;;;;;;5033778;28;20445;-63
2022/09/11 11:42:58;;;;;;;9.33;7.40;;;;;;;;;;5033531;28;20498;-63
2022/09/11 11:45:30;;;;;;;10.00;8.40;;;;;;;;;;5033448;28;20958;-64
2022/09/11 11:47:59;;;;;;;6.87;6.13;;;;;;;;;;5034146;28;20800;-63
2022/09/11 11:50:28;;;;;;;10.87;7.63;;;;;;;;;;5033148;28;20478;-64
2022/09/11 11:53:00;;;;;;;6.50;5.63;;;;;;;;;;5033549;28;20459;-63
2022/09/11 11:55:29;;;;;;;9.33;7.10;;;;;;;;;;5034054;28;20449;-63
2022/09/11 11:58:00;;;;;;;12.13;7.60;;;;;;;;;;5033366;28;20450;-63
2022/09/11 12:00:30;;;;;;;7.60;6.00;;;;;;;;;;5033292;28;20473;-63
2022/09/11 12:03:02;;;;;;;11.33;6.50;;;;;;;;;;5033404;28;20445;-63
2022/09/11 12:05:31;;;;;;;10.10;7.17;;;;;;;;;;5033308;28;21011;-62
2022/09/11 12:07:58;;;;;;;8.17;7.27;;;;;;;;;;5033932;28;20803;-62
2022/09/11 12:10:32;;;;;;;5.43;4.90;;;;;;;;;;5032989;28;20548;-63
2022/09/11 12:13:00;;;;;;;6.60;5.80;;;;;;;;;;5033229;28;20444;-62
2022/09/11 12:15:29;;;;;;;8.83;6.90;;;;;;;;;;5033018;28;20528;-63
2022/09/11 12:18:02;;;;;;;6.17;5.67;;;;;;;;;;5033082;28;20447;-62
2022/09/11 12:20:33;;;;;;;9.70;5.60;;;;;;;;;;5033537;28;20433;-62
2022/09/11 12:23:00;;;;;;;6.70;5.63;;;;;;;;;;5033302;28;20446;-62
2022/09/11 12:25:49;;;;;;;5.60;4.73;;;;;;;;;;5033520;28;20444;-63
2022/09/11 12:28:24;;;;;;;6.43;5.20;;;;;;;;;;5033379;28;20441;-62
2022/09/11 12:30:59;;;;;;;6.80;5.70;;;;;;;;;;5031843;28;20485;-62
2022/09/11 12:33:46;;;;;;;5.87;5.27;;;;;;;;;;5033233;28;20434;-62
2022/09/11 12:36:16;;;;;;;8.60;5.60;;;;;;;;;;5033339;28;20445;-62
2022/09/11 12:38:46;;;;;;;7.27;5.70;;;;;;;;;;5033034;28;20430;-62
2022/09/11 12:41:16;;;;;;;10.77;6.87;;;;;;;;;;5036690;28;20449;-62
2022/09/11 12:43:47;;;;;;;6.30;5.70;;;;;;;;;;5037091;28;20453;-62
2022/09/11 12:46:50;;;;;;;8.73;6.37;;;;;;;;;;5037032;28;20442;-63
2022/09/11 12:49:19;;;;;;;5.97;5.30;;;;;;;;;;5037112;28;20449;-62
2022/09/11 12:51:52;;;;;;;8.33;5.77;;;;;;;;;;5036270;28;20448;-63
2022/09/11 12:54:23;;;;;;;5.77;5.27;;;;;;;;;;5037238;28;20779;-62
2022/09/11 12:56:51;;;;;;;7.90;5.30;;;;;;;;;;5036840;28;20443;-62
2022/09/11 12:59:23;;;;;;;5.47;4.97;;;;;;;;;;5036971;28;20448;-63
2022/09/11 13:01:51;;;;;;;5.70;5.17;;;;;;;;;;5037100;28;20476;-62
2022/09/11 13:04:21;;;;;;;7.37;6.33;;;;;;;;;;5036843;28;20440;-62
2022/09/11 13:06:50;;;;;;;7.10;6.23;;;;;;;;;;5036717;28;20452;-62
2022/09/11 13:09:22;;;;;;;7.03;6.33;;;;;;;;;;5036600;28;20474;-62
2022/09/11 13:11:50;;;;;;;6.70;6.00;;;;;;;;;;5036329;28;20425;-63
2022/09/11 13:14:35;;;;;;;8.93;7.90;;;;;;;;;;5036796;28;20772;-62
2022/09/11 13:17:03;;;;;;;10.57;8.57;;;;;;;;;;5036100;28;20456;-63
2022/09/11 13:19:33;;;;;;;14.70;9.10;;;;;;;;;;5036634;28;20468;-62
2022/09/11 13:22:00;;;;;;;10.23;8.30;;;;;;;;;;5036258;28;20991;-63
2022/09/11 13:24:30;;;;;;;11.93;10.70;;;;;;;;;;5036706;28;20445;-62
2022/09/11 13:26:59;;;;;;;14.60;11.07;;;;;;;;;;5036516;28;20442;-62
2022/09/11 13:29:28;;;;;;;13.93;10.70;;;;;;;;;;5036075;28;20806;-62
2022/09/11 13:31:56;;;;;;;12.97;9.93;;;;;;;;;;5035349;28;20510;-62
2022/09/11 13:34:25;;;;;;;11.80;10.10;;;;;;;;;;5036405;28;20455;-62
2022/09/11 13:36:53;;;;;;;11.33;10.13;;;;;;;;;;5035893;28;20537;-62
2022/09/11 13:39:20;;;;;;;13.20;11.40;;;;;;;;;;5035913;28;20533;-63
2022/09/11 13:41:50;;;;;;;12.10;10.07;;;;;;;;;;5035696;28;20439;-62
2022/09/11 13:44:30;;;;;;;9.70;8.73;;;;;;;;;;5036173;28;20450;-62
2022/09/11 13:47:00;;;;;;;10.93;9.90;;;;;;;;;;5036420;28;20430;-62
2022/09/11 13:49:31;;;;;;;12.73;10.63;;;;;;;;;;5036387;28;20450;-62
2022/09/11 13:51:58;;;;;;;10.87;8.97;;;;;;;;;;5035432;28;20439;-63
2022/09/11 13:54:27;;;;;;;13.13;10.60;;;;;;;;;;5036498;28;20438;-62
2022/09/11 13:57:13;;;;;;;12.10;11.00;;;;;;;;;;5035833;28;20492;-62
2022/09/11 13:59:45;;;;;;;16.63;10.57;;;;;;;;;;5036129;28;20437;-63
2022/09/11 14:02:31;;;;;;;11.43;10.33;;;;;;;;;;5035589;28;20532;-63
2022/09/11 14:05:03;;;;;;;12.80;11.50;;;;;;;;;;5035899;28;20446;-62
2022/09/11 14:07:31;;;;;;;10.17;9.10;;;;;;;;;;5035469;28;20906;-63
2022/09/11 14:10:03;;;;;;;12.03;10.63;;;;;;;;;;5035639;28;20927;-63
2022/09/11 14:12:32;;;;;;;13.40;10.27;;;;;;;;;;5035868;28;20442;-62
2022/09/11 14:15:00;;;;;;;12.40;10.43;;;;;;;;;;5036186;28;20435;-63
2022/09/11 14:17:28;;;;;;;9.70;8.70;;;;;;;;;;5035506;28;20543;-63
2022/09/11 14:19:58;;;;;;;12.20;10.90;;;;;;;;;;5035800;28;20443;-63
2022/09/11 14:22:28;;;;;;;12.17;10.90;;;;;;;;;;5035445;28;20451;-62
2022/09/11 14:25:04;;;;;;;11.07;10.00;;;;;;;;;;5035533;28;20461;-62
2022/09/11 14:27:37;;;;;;;11.30;10.20;;;;;;;;;;5035625;28;20430;-63
2022/09/11 14:30:20;;;;;;;12.60;11.03;;;;;;;;;;5035331;28;20483;-62
2022/09/11 14:32:47;;;;;;;12.00;10.50;;;;;;;;;;5034889;28;20482;-62